sensor_id;sensor_type;location;lat;lon;timestamp;P1;durP1;ratioP1;P2;durP2;ratioP2
16460;SDS011;8341;42.048;24.650;2022-12-07T05:09:33;11.47;;;4.70;;
16460;SDS011;8341;42.048;24.650;2022-12-07T05:12:00;8.03;;;4.03;;
16460;SDS011;8341;42.048;24.650;2022-12-07T05:14:27;7.77;;;3.57;;
16460;SDS011;8341;42.048;24.650;2022-12-07T05:16:53;10.27;;;4.47;;
16460;SDS011;8341;42.048;24.650;2022-12-07T05:19:20;9.57;;;4.27;;
16460;SDS011;8341;42.048;24.650;2022-12-07T05:21:47;8.90;;;4.43;;
16460;SDS011;8341;42.048;24.650;2022-12-07T05:24:14;11.17;;;4.27;;
16460;SDS011;8341;42.048;24.650;2022-12-07T05:26:44;43.43;;;24.23;;
16460;SDS011;8341;42.048;24.650;2022-12-07T05:29:12;11.93;;;6.00;;
16460;SDS011;8341;42.048;24.650;2022-12-07T05:31:40;9.57;;;4.87;;
16460;SDS011;8341;42.048;24.650;2022-12-07T05:34:07;13.90;;;6.53;;
16460;SDS011;8341;42.048;24.650;2022-12-07T05:36:34;10.50;;;5.53;;
16460;SDS011;8341;42.048;24.650;2022-12-07T05:39:01;8.57;;;5.20;;
16460;SDS011;8341;42.048;24.650;2022-12-07T05:41:28;9.87;;;4.93;;
16460;SDS011;8341;42.048;24.650;2022-12-07T05:44:13;12.43;;;5.77;;
16460;SDS011;8341;42.048;24.650;2022-12-07T05:46:40;11.87;;;5.33;;
16460;SDS011;8341;42.048;24.650;2022-12-07T05:49:07;9.30;;;5.00;;
16460;SDS011;8341;42.048;24.650;2022-12-07T05:51:33;8.93;;;4.50;;
16460;SDS011;8341;42.048;24.650;2022-12-07T05:54:00;11.90;;;5.37;;
16460;SDS011;8341;42.048;24.650;2022-12-07T05:56:27;11.00;;;5.10;;
16460;SDS011;8341;42.048;24.650;2022-12-07T05:58:54;9.30;;;4.80;;
16460;SDS011;8341;42.048;24.650;2022-12-07T06:01:40;11.73;;;4.93;;
16460;SDS011;8341;42.048;24.650;2022-12-07T06:04:07;8.87;;;4.93;;
16460;SDS011;8341;42.048;24.650;2022-12-07T06:06:34;10.47;;;5.93;;
16460;SDS011;8341;42.048;24.650;2022-12-07T06:09:01;13.97;;;6.30;;
16460;SDS011;8341;42.048;24.650;2022-12-07T06:11:28;10.53;;;5.57;;
16460;SDS011;8341;42.048;24.650;2022-12-07T06:14:12;12.60;;;5.40;;
16460;SDS011;8341;42.048;24.650;2022-12-07T06:16:40;12.87;;;5.90;;
16460;SDS011;8341;42.048;24.650;2022-12-07T06:19:07;11.33;;;6.03;;
16460;SDS011;8341;42.048;24.650;2022-12-07T06:21:34;14.37;;;6.33;;
16460;SDS011;8341;42.048;24.650;2022-12-07T06:24:01;16.47;;;7.50;;
16460;SDS011;8341;42.048;24.650;2022-12-07T06:26:28;11.87;;;6.87;;
16460;SDS011;8341;42.048;24.650;2022-12-07T06:28:55;12.47;;;6.10;;
16460;SDS011;8341;42.048;24.650;2022-12-07T06:31:22;13.57;;;5.90;;
16460;SDS011;8341;42.048;24.650;2022-12-07T06:33:50;11.83;;;6.37;;
16460;SDS011;8341;42.048;24.650;2022-12-07T06:36:17;11.47;;;5.23;;
16460;SDS011;8341;42.048;24.650;2022-12-07T06:38:44;12.60;;;5.90;;
16460;SDS011;8341;42.048;24.650;2022-12-07T06:41:11;9.10;;;4.90;;
16460;SDS011;8341;42.048;24.650;2022-12-07T06:43:37;9.30;;;5.30;;
16460;SDS011;8341;42.048;24.650;2022-12-07T06:46:05;8.57;;;4.93;;
16460;SDS011;8341;42.048;24.650;2022-12-07T06:48:31;10.90;;;6.47;;
16460;SDS011;8341;42.048;24.650;2022-12-07T06:51:00;17.57;;;8.03;;
16460;SDS011;8341;42.048;24.650;2022-12-07T06:53:27;14.40;;;7.73;;
16460;SDS011;8341;42.048;24.650;2022-12-07T06:55:53;22.80;;;14.03;;
16460;SDS011;8341;42.048;24.650;2022-12-07T06:58:21;22.00;;;14.20;;
16460;SDS011;8341;42.048;24.650;2022-12-07T07:00:48;15.90;;;8.33;;
16460;SDS011;8341;42.048;24.650;2022-12-07T07:03:15;15.50;;;8.67;;
16460;SDS011;8341;42.048;24.650;2022-12-07T07:05:42;15.23;;;9.68;;
16460;SDS011;8341;42.048;24.650;2022-12-07T07:08:11;22.67;;;10.67;;
16460;SDS011;8341;42.048;24.650;2022-12-07T07:10:39;24.30;;;12.23;;
16460;SDS011;8341;42.048;24.650;2022-12-07T07:13:06;22.73;;;12.13;;
16460;SDS011;8341;42.048;24.650;2022-12-07T07:15:33;16.02;;;9.52;;
16460;SDS011;8341;42.048;24.650;2022-12-07T07:18:01;20.75;;;11.05;;
16460;SDS011;8341;42.048;24.650;2022-12-07T07:20:28;27.70;;;14.48;;
16460;SDS011;8341;42.048;24.650;2022-12-07T07:22:56;33.63;;;17.15;;
16460;SDS011;8341;42.048;24.650;2022-12-07T07:25:24;36.15;;;20.95;;
16460;SDS011;8341;42.048;24.650;2022-12-07T07:27:51;32.38;;;19.20;;
16460;SDS011;8341;42.048;24.650;2022-12-07T07:30:18;29.35;;;14.95;;
16460;SDS011;8341;42.048;24.650;2022-12-07T07:32:45;20.95;;;10.32;;
16460;SDS011;8341;42.048;24.650;2022-12-07T07:35:12;18.85;;;10.07;;
16460;SDS011;8341;42.048;24.650;2022-12-07T07:37:39;16.48;;;8.48;;
16460;SDS011;8341;42.048;24.650;2022-12-07T07:40:07;19.90;;;10.00;;
16460;SDS011;8341;42.048;24.650;2022-12-07T07:42:35;20.60;;;10.57;;
16460;SDS011;8341;42.048;24.650;2022-12-07T07:45:03;21.67;;;11.73;;
16460;SDS011;8341;42.048;24.650;2022-12-07T07:47:30;26.42;;;13.80;;
16460;SDS011;8341;42.048;24.650;2022-12-07T07:49:57;27.27;;;13.20;;
16460;SDS011;8341;42.048;24.650;2022-12-07T07:52:24;23.25;;;11.57;;
16460;SDS011;8341;42.048;24.650;2022-12-07T07:54:51;17.92;;;10.55;;
16460;SDS011;8341;42.048;24.650;2022-12-07T07:57:18;17.90;;;10.27;;
16460;SDS011;8341;42.048;24.650;2022-12-07T07:59:47;13.35;;;8.25;;
16460;SDS011;8341;42.048;24.650;2022-12-07T08:02:14;18.30;;;10.25;;
16460;SDS011;8341;42.048;24.650;2022-12-07T08:04:42;17.73;;;11.07;;
16460;SDS011;8341;42.048;24.650;2022-12-07T08:07:09;22.50;;;13.27;;
16460;SDS011;8341;42.048;24.650;2022-12-07T08:09:37;20.83;;;12.35;;
16460;SDS011;8341;42.048;24.650;2022-12-07T08:12:05;22.67;;;13.02;;
16460;SDS011;8341;42.048;24.650;2022-12-07T08:14:33;23.17;;;11.82;;
16460;SDS011;8341;42.048;24.650;2022-12-07T08:17:01;19.75;;;12.48;;
16460;SDS011;8341;42.048;24.650;2022-12-07T08:19:28;22.00;;;11.63;;
16460;SDS011;8341;42.048;24.650;2022-12-07T08:21:55;19.35;;;12.15;;
16460;SDS011;8341;42.048;24.650;2022-12-07T08:24:22;18.40;;;10.27;;
16460;SDS011;8341;42.048;24.650;2022-12-07T08:26:50;19.25;;;11.65;;
16460;SDS011;8341;42.048;24.650;2022-12-07T08:29:17;22.88;;;13.10;;
16460;SDS011;8341;42.048;24.650;2022-12-07T08:31:44;22.00;;;13.52;;
16460;SDS011;8341;42.048;24.650;2022-12-07T08:34:13;23.75;;;14.45;;
16460;SDS011;8341;42.048;24.650;2022-12-07T08:36:40;30.42;;;16.83;;
16460;SDS011;8341;42.048;24.650;2022-12-07T08:39:07;29.30;;;16.55;;
16460;SDS011;8341;42.048;24.650;2022-12-07T08:41:34;26.35;;;14.90;;
16460;SDS011;8341;42.048;24.650;2022-12-07T08:44:00;29.95;;;16.17;;
16460;SDS011;8341;42.048;24.650;2022-12-07T08:46:29;32.53;;;17.02;;
16460;SDS011;8341;42.048;24.650;2022-12-07T08:49:03;34.42;;;18.45;;
16460;SDS011;8341;42.048;24.650;2022-12-07T08:51:35;36.28;;;20.58;;
16460;SDS011;8341;42.048;24.650;2022-12-07T08:54:04;39.72;;;20.17;;
16460;SDS011;8341;42.048;24.650;2022-12-07T08:56:35;34.17;;;19.20;;
16460;SDS011;8341;42.048;24.650;2022-12-07T08:59:02;36.80;;;20.25;;
16460;SDS011;8341;42.048;24.650;2022-12-07T09:01:30;37.05;;;19.88;;
16460;SDS011;8341;42.048;24.650;2022-12-07T09:03:57;38.22;;;21.00;;
16460;SDS011;8341;42.048;24.650;2022-12-07T09:06:24;38.55;;;20.83;;
16460;SDS011;8341;42.048;24.650;2022-12-07T09:08:53;37.85;;;20.83;;
16460;SDS011;8341;42.048;24.650;2022-12-07T09:11:24;40.65;;;21.85;;
16460;SDS011;8341;42.048;24.650;2022-12-07T09:13:51;42.78;;;20.70;;
16460;SDS011;8341;42.048;24.650;2022-12-07T09:16:18;39.67;;;20.58;;
16460;SDS011;8341;42.048;24.650;2022-12-07T09:18:45;39.85;;;20.95;;
16460;SDS011;8341;42.048;24.650;2022-12-07T09:21:12;41.40;;;22.02;;
16460;SDS011;8341;42.048;24.650;2022-12-07T09:23:38;44.85;;;22.35;;
16460;SDS011;8341;42.048;24.650;2022-12-07T09:26:08;43.13;;;22.40;;
16460;SDS011;8341;42.048;24.650;2022-12-07T09:28:35;43.83;;;24.10;;
16460;SDS011;8341;42.048;24.650;2022-12-07T09:31:03;38.53;;;22.67;;
16460;SDS011;8341;42.048;24.650;2022-12-07T09:33:30;47.40;;;23.52;;
16460;SDS011;8341;42.048;24.650;2022-12-07T09:35:57;38.30;;;22.63;;
16460;SDS011;8341;42.048;24.650;2022-12-07T09:38:24;40.70;;;22.30;;
16460;SDS011;8341;42.048;24.650;2022-12-07T09:40:51;37.38;;;21.55;;
16460;SDS011;8341;42.048;24.650;2022-12-07T09:43:22;40.38;;;21.38;;
16460;SDS011;8341;42.048;24.650;2022-12-07T09:45:51;42.40;;;22.38;;
16460;SDS011;8341;42.048;24.650;2022-12-07T09:48:21;36.40;;;20.60;;
16460;SDS011;8341;42.048;24.650;2022-12-07T09:50:57;35.80;;;19.23;;
16460;SDS011;8341;42.048;24.650;2022-12-07T09:53:25;38.47;;;20.35;;
16460;SDS011;8341;42.048;24.650;2022-12-07T09:55:54;38.90;;;21.63;;
16460;SDS011;8341;42.048;24.650;2022-12-07T09:58:25;38.95;;;20.75;;
16460;SDS011;8341;42.048;24.650;2022-12-07T10:00:53;42.75;;;22.90;;
16460;SDS011;8341;42.048;24.650;2022-12-07T10:03:23;37.50;;;21.20;;
16460;SDS011;8341;42.048;24.650;2022-12-07T10:05:51;37.85;;;20.88;;
16460;SDS011;8341;42.048;24.650;2022-12-07T10:08:19;36.72;;;21.23;;
16460;SDS011;8341;42.048;24.650;2022-12-07T10:10:48;35.70;;;20.77;;
16460;SDS011;8341;42.048;24.650;2022-12-07T10:13:19;38.28;;;20.73;;
16460;SDS011;8341;42.048;24.650;2022-12-07T10:15:49;38.60;;;22.50;;
16460;SDS011;8341;42.048;24.650;2022-12-07T10:18:25;41.10;;;20.95;;
16460;SDS011;8341;42.048;24.650;2022-12-07T10:21:00;36.55;;;21.77;;
16460;SDS011;8341;42.048;24.650;2022-12-07T10:23:29;36.70;;;21.45;;
16460;SDS011;8341;42.048;24.650;2022-12-07T10:25:56;38.42;;;21.20;;
16460;SDS011;8341;42.048;24.650;2022-12-07T10:28:27;34.30;;;20.75;;
16460;SDS011;8341;42.048;24.650;2022-12-07T10:31:15;40.10;;;21.45;;
16460;SDS011;8341;42.048;24.650;2022-12-07T10:33:48;38.30;;;21.02;;
16460;SDS011;8341;42.048;24.650;2022-12-07T10:36:17;41.13;;;21.77;;
16460;SDS011;8341;42.048;24.650;2022-12-07T10:38:47;39.45;;;21.50;;
16460;SDS011;8341;42.048;24.650;2022-12-07T10:41:15;38.45;;;20.70;;
16460;SDS011;8341;42.048;24.650;2022-12-07T10:43:52;46.10;;;21.98;;
16460;SDS011;8341;42.048;24.650;2022-12-07T10:52:32;37.78;;;20.92;;
16460;SDS011;8341;42.048;24.650;2022-12-07T10:55:16;36.40;;;21.20;;
16460;SDS011;8341;42.048;24.650;2022-12-07T10:57:52;41.88;;;20.67;;
16460;SDS011;8341;42.048;24.650;2022-12-07T11:00:35;33.78;;;19.95;;
16460;SDS011;8341;42.048;24.650;2022-12-07T11:06:16;35.97;;;20.48;;
16460;SDS011;8341;42.048;24.650;2022-12-07T11:08:57;39.13;;;20.90;;
16460;SDS011;8341;42.048;24.650;2022-12-07T11:11:33;35.28;;;20.02;;
16460;SDS011;8341;42.048;24.650;2022-12-07T11:14:05;35.92;;;19.73;;
16460;SDS011;8341;42.048;24.650;2022-12-07T11:16:43;37.13;;;20.15;;
16460;SDS011;8341;42.048;24.650;2022-12-07T11:19:22;36.42;;;18.88;;
16460;SDS011;8341;42.048;24.650;2022-12-07T11:22:18;33.80;;;18.25;;
16460;SDS011;8341;42.048;24.650;2022-12-07T11:24:50;35.90;;;18.67;;
16460;SDS011;8341;42.048;24.650;2022-12-07T11:27:27;35.72;;;18.83;;
16460;SDS011;8341;42.048;24.650;2022-12-07T11:30:07;37.88;;;19.70;;
16460;SDS011;8341;42.048;24.650;2022-12-07T11:32:59;38.08;;;20.08;;
16460;SDS011;8341;42.048;24.650;2022-12-07T11:35:36;34.35;;;19.58;;
16460;SDS011;8341;42.048;24.650;2022-12-07T11:38:14;36.58;;;19.42;;
16460;SDS011;8341;42.048;24.650;2022-12-07T11:40:43;32.60;;;20.27;;
16460;SDS011;8341;42.048;24.650;2022-12-07T11:43:15;35.58;;;20.45;;
16460;SDS011;8341;42.048;24.650;2022-12-07T11:45:51;36.50;;;19.20;;
16460;SDS011;8341;42.048;24.650;2022-12-07T11:48:25;34.75;;;19.27;;
16460;SDS011;8341;42.048;24.650;2022-12-07T11:50:59;33.30;;;18.35;;
16460;SDS011;8341;42.048;24.650;2022-12-07T11:53:31;31.55;;;18.27;;
16460;SDS011;8341;42.048;24.650;2022-12-07T11:56:05;33.38;;;17.80;;
16460;SDS011;8341;42.048;24.650;2022-12-07T11:58:42;31.50;;;17.80;;
16460;SDS011;8341;42.048;24.650;2022-12-07T12:01:16;32.55;;;18.92;;
16460;SDS011;8341;42.048;24.650;2022-12-07T12:03:53;32.63;;;18.80;;
16460;SDS011;8341;42.048;24.650;2022-12-07T12:06:26;33.55;;;18.92;;
16460;SDS011;8341;42.048;24.650;2022-12-07T12:08:56;34.05;;;18.98;;
16460;SDS011;8341;42.048;24.650;2022-12-07T12:11:36;33.92;;;18.77;;
16460;SDS011;8341;42.048;24.650;2022-12-07T12:20:16;33.50;;;18.35;;
16460;SDS011;8341;42.048;24.650;2022-12-07T12:22:50;32.50;;;18.27;;
16460;SDS011;8341;42.048;24.650;2022-12-07T12:25:22;33.25;;;17.85;;
16460;SDS011;8341;42.048;24.650;2022-12-07T12:27:52;30.35;;;17.80;;
16460;SDS011;8341;42.048;24.650;2022-12-07T12:30:26;29.80;;;16.67;;
16460;SDS011;8341;42.048;24.650;2022-12-07T12:33:01;30.73;;;17.00;;
16460;SDS011;8341;42.048;24.650;2022-12-07T12:35:40;32.95;;;17.52;;
16460;SDS011;8341;42.048;24.650;2022-12-07T12:41:01;30.02;;;17.83;;
16460;SDS011;8341;42.048;24.650;2022-12-07T12:43:49;34.72;;;18.80;;
16460;SDS011;8341;42.048;24.650;2022-12-07T12:58:31;35.45;;;19.05;;
16460;SDS011;8341;42.048;24.650;2022-12-07T13:04:24;37.55;;;19.58;;
16460;SDS011;8341;42.048;24.650;2022-12-07T13:07:13;31.67;;;19.08;;
16460;SDS011;8341;42.048;24.650;2022-12-07T13:10:20;34.35;;;18.50;;
16460;SDS011;8341;42.048;24.650;2022-12-07T13:12:56;35.70;;;18.77;;
16460;SDS011;8341;42.048;24.650;2022-12-07T13:15:36;38.00;;;19.45;;
16460;SDS011;8341;42.048;24.650;2022-12-07T13:18:21;35.65;;;19.00;;
16460;SDS011;8341;42.048;24.650;2022-12-07T13:20:52;37.25;;;19.27;;
16460;SDS011;8341;42.048;24.650;2022-12-07T13:23:24;35.17;;;20.50;;
16460;SDS011;8341;42.048;24.650;2022-12-07T13:25:59;37.38;;;21.13;;
16460;SDS011;8341;42.048;24.650;2022-12-07T13:28:35;37.85;;;19.45;;
16460;SDS011;8341;42.048;24.650;2022-12-07T13:31:15;31.58;;;18.50;;
16460;SDS011;8341;42.048;24.650;2022-12-07T13:33:56;35.22;;;18.85;;
16460;SDS011;8341;42.048;24.650;2022-12-07T13:36:24;36.78;;;20.00;;
16460;SDS011;8341;42.048;24.650;2022-12-07T13:38:55;33.55;;;18.50;;
16460;SDS011;8341;42.048;24.650;2022-12-07T13:41:23;36.38;;;21.33;;
16460;SDS011;8341;42.048;24.650;2022-12-07T13:43:53;30.80;;;18.20;;
16460;SDS011;8341;42.048;24.650;2022-12-07T13:46:31;33.38;;;19.05;;
16460;SDS011;8341;42.048;24.650;2022-12-07T13:49:13;37.70;;;21.42;;
16460;SDS011;8341;42.048;24.650;2022-12-07T13:51:43;35.35;;;20.00;;
16460;SDS011;8341;42.048;24.650;2022-12-07T13:54:11;49.55;;;26.70;;
16460;SDS011;8341;42.048;24.650;2022-12-07T13:56:39;51.83;;;27.83;;
16460;SDS011;8341;42.048;24.650;2022-12-07T13:59:10;43.55;;;24.38;;
16460;SDS011;8341;42.048;24.650;2022-12-07T14:01:41;39.50;;;21.70;;
16460;SDS011;8341;42.048;24.650;2022-12-07T14:04:32;36.47;;;22.02;;
16460;SDS011;8341;42.048;24.650;2022-12-07T14:07:00;36.10;;;19.77;;
16460;SDS011;8341;42.048;24.650;2022-12-07T14:09:53;33.60;;;19.90;;
16460;SDS011;8341;42.048;24.650;2022-12-07T14:12:21;37.00;;;20.52;;
16460;SDS011;8341;42.048;24.650;2022-12-07T14:14:48;29.73;;;18.33;;
16460;SDS011;8341;42.048;24.650;2022-12-07T14:17:17;31.60;;;18.50;;
16460;SDS011;8341;42.048;24.650;2022-12-07T14:19:48;30.75;;;17.98;;
16460;SDS011;8341;42.048;24.650;2022-12-07T14:22:30;33.80;;;19.77;;
16460;SDS011;8341;42.048;24.650;2022-12-07T14:25:16;31.60;;;18.83;;
16460;SDS011;8341;42.048;24.650;2022-12-07T14:27:49;36.28;;;20.63;;
16460;SDS011;8341;42.048;24.650;2022-12-07T14:30:22;31.23;;;18.70;;
16460;SDS011;8341;42.048;24.650;2022-12-07T14:32:52;36.28;;;18.88;;
16460;SDS011;8341;42.048;24.650;2022-12-07T14:35:21;30.77;;;18.38;;
16460;SDS011;8341;42.048;24.650;2022-12-07T14:37:48;32.38;;;18.67;;
16460;SDS011;8341;42.048;24.650;2022-12-07T14:40:17;34.13;;;18.48;;
16460;SDS011;8341;42.048;24.650;2022-12-07T14:42:45;29.60;;;18.02;;
16460;SDS011;8341;42.048;24.650;2022-12-07T14:45:15;28.52;;;17.13;;
16460;SDS011;8341;42.048;24.650;2022-12-07T14:47:43;35.08;;;19.88;;
16460;SDS011;8341;42.048;24.650;2022-12-07T14:50:13;35.08;;;20.70;;
16460;SDS011;8341;42.048;24.650;2022-12-07T14:52:42;31.75;;;18.90;;
16460;SDS011;8341;42.048;24.650;2022-12-07T14:55:13;34.08;;;18.13;;
16460;SDS011;8341;42.048;24.650;2022-12-07T14:57:44;39.42;;;23.45;;
16460;SDS011;8341;42.048;24.650;2022-12-07T15:00:15;42.08;;;24.45;;
16460;SDS011;8341;42.048;24.650;2022-12-07T15:02:43;42.10;;;22.45;;
16460;SDS011;8341;42.048;24.650;2022-12-07T15:05:10;48.08;;;24.00;;
16460;SDS011;8341;42.048;24.650;2022-12-07T15:07:39;37.17;;;21.55;;
16460;SDS011;8341;42.048;24.650;2022-12-07T15:10:09;39.95;;;22.77;;
16460;SDS011;8341;42.048;24.650;2022-12-07T15:12:41;46.20;;;22.33;;
16460;SDS011;8341;42.048;24.650;2022-12-07T15:15:08;35.78;;;22.67;;
16460;SDS011;8341;42.048;24.650;2022-12-07T15:17:35;39.80;;;21.85;;
16460;SDS011;8341;42.048;24.650;2022-12-07T15:20:02;42.10;;;21.70;;
16460;SDS011;8341;42.048;24.650;2022-12-07T15:22:30;43.22;;;23.83;;
16460;SDS011;8341;42.048;24.650;2022-12-07T15:24:58;39.20;;;22.48;;
16460;SDS011;8341;42.048;24.650;2022-12-07T15:27:26;46.22;;;22.95;;
16460;SDS011;8341;42.048;24.650;2022-12-07T15:29:53;42.60;;;23.00;;
16460;SDS011;8341;42.048;24.650;2022-12-07T15:32:20;46.50;;;26.17;;
16460;SDS011;8341;42.048;24.650;2022-12-07T15:34:48;39.80;;;22.90;;
16460;SDS011;8341;42.048;24.650;2022-12-07T15:37:15;41.70;;;23.13;;
16460;SDS011;8341;42.048;24.650;2022-12-07T15:39:42;34.15;;;18.55;;
16460;SDS011;8341;42.048;24.650;2022-12-07T15:42:10;43.42;;;20.60;;
16460;SDS011;8341;42.048;24.650;2022-12-07T15:44:37;36.95;;;20.15;;
16460;SDS011;8341;42.048;24.650;2022-12-07T15:47:21;32.67;;;18.30;;
16460;SDS011;8341;42.048;24.650;2022-12-07T15:49:48;37.88;;;20.02;;
16460;SDS011;8341;42.048;24.650;2022-12-07T15:52:15;40.63;;;18.42;;
16460;SDS011;8341;42.048;24.650;2022-12-07T15:54:44;41.05;;;20.52;;
16460;SDS011;8341;42.048;24.650;2022-12-07T15:57:14;36.47;;;20.38;;
16460;SDS011;8341;42.048;24.650;2022-12-07T15:59:41;36.03;;;19.50;;
16460;SDS011;8341;42.048;24.650;2022-12-07T16:02:08;39.85;;;20.65;;
16460;SDS011;8341;42.048;24.650;2022-12-07T16:04:36;46.70;;;22.15;;
16460;SDS011;8341;42.048;24.650;2022-12-07T16:07:03;57.33;;;28.23;;
16460;SDS011;8341;42.048;24.650;2022-12-07T16:09:30;65.40;;;35.13;;
16460;SDS011;8341;42.048;24.650;2022-12-07T16:11:57;39.55;;;21.50;;
16460;SDS011;8341;42.048;24.650;2022-12-07T16:14:26;39.15;;;19.98;;
16460;SDS011;8341;42.048;24.650;2022-12-07T16:16:53;37.17;;;18.70;;
16460;SDS011;8341;42.048;24.650;2022-12-07T16:19:19;32.58;;;16.88;;
16460;SDS011;8341;42.048;24.650;2022-12-07T16:21:46;35.90;;;17.52;;
16460;SDS011;8341;42.048;24.650;2022-12-07T16:24:13;37.03;;;17.90;;
16460;SDS011;8341;42.048;24.650;2022-12-07T16:26:41;74.50;;;46.05;;
16460;SDS011;8341;42.048;24.650;2022-12-07T16:29:09;40.63;;;21.58;;
16460;SDS011;8341;42.048;24.650;2022-12-07T16:31:39;58.40;;;32.70;;
16460;SDS011;8341;42.048;24.650;2022-12-07T16:34:06;57.65;;;26.88;;
16460;SDS011;8341;42.048;24.650;2022-12-07T16:36:34;50.80;;;26.48;;
16460;SDS011;8341;42.048;24.650;2022-12-07T16:39:02;51.67;;;24.73;;
16460;SDS011;8341;42.048;24.650;2022-12-07T16:41:29;40.13;;;21.70;;
16460;SDS011;8341;42.048;24.650;2022-12-07T16:43:56;35.85;;;18.80;;
16460;SDS011;8341;42.048;24.650;2022-12-07T16:46:23;35.40;;;18.30;;
16460;SDS011;8341;42.048;24.650;2022-12-07T16:48:51;37.78;;;19.77;;
16460;SDS011;8341;42.048;24.650;2022-12-07T16:51:18;38.58;;;19.90;;
16460;SDS011;8341;42.048;24.650;2022-12-07T16:53:45;41.30;;;25.08;;
16460;SDS011;8341;42.048;24.650;2022-12-07T16:56:13;38.25;;;19.15;;
16460;SDS011;8341;42.048;24.650;2022-12-07T16:58:41;36.08;;;18.75;;
16460;SDS011;8341;42.048;24.650;2022-12-07T17:01:10;44.47;;;23.63;;
16460;SDS011;8341;42.048;24.650;2022-12-07T17:03:38;47.60;;;24.55;;
16460;SDS011;8341;42.048;24.650;2022-12-07T17:06:12;47.35;;;23.83;;
16460;SDS011;8341;42.048;24.650;2022-12-07T17:08:40;42.80;;;23.10;;
16460;SDS011;8341;42.048;24.650;2022-12-07T17:11:11;42.70;;;23.13;;
16460;SDS011;8341;42.048;24.650;2022-12-07T17:13:38;41.55;;;21.52;;
16460;SDS011;8341;42.048;24.650;2022-12-07T17:16:23;39.80;;;20.10;;
16460;SDS011;8341;42.048;24.650;2022-12-07T17:18:50;30.88;;;16.70;;
16460;SDS011;8341;42.048;24.650;2022-12-07T17:21:19;41.70;;;20.55;;
16460;SDS011;8341;42.048;24.650;2022-12-07T17:23:46;37.78;;;17.67;;
16460;SDS011;8341;42.048;24.650;2022-12-07T17:26:14;32.90;;;17.17;;
16460;SDS011;8341;42.048;24.650;2022-12-07T17:28:42;33.13;;;16.73;;
16460;SDS011;8341;42.048;24.650;2022-12-07T17:31:11;31.98;;;16.75;;
16460;SDS011;8341;42.048;24.650;2022-12-07T17:33:39;36.55;;;17.20;;
16460;SDS011;8341;42.048;24.650;2022-12-07T17:36:10;55.95;;;28.52;;
16460;SDS011;8341;42.048;24.650;2022-12-07T17:38:38;45.85;;;26.88;;
16460;SDS011;8341;42.048;24.650;2022-12-07T17:41:09;42.47;;;22.45;;
16460;SDS011;8341;42.048;24.650;2022-12-07T17:43:37;42.38;;;23.35;;
16460;SDS011;8341;42.048;24.650;2022-12-07T17:46:05;38.42;;;18.73;;
16460;SDS011;8341;42.048;24.650;2022-12-07T17:48:34;35.05;;;17.88;;
16460;SDS011;8341;42.048;24.650;2022-12-07T17:51:01;31.75;;;18.02;;
16460;SDS011;8341;42.048;24.650;2022-12-07T17:53:48;28.35;;;15.18;;
16460;SDS011;8341;42.048;24.650;2022-12-07T17:56:16;34.57;;;18.00;;
16460;SDS011;8341;42.048;24.650;2022-12-07T17:58:43;34.88;;;16.65;;
16460;SDS011;8341;42.048;24.650;2022-12-07T18:01:10;30.50;;;17.23;;
16460;SDS011;8341;42.048;24.650;2022-12-07T18:03:37;31.40;;;15.52;;
16460;SDS011;8341;42.048;24.650;2022-12-07T18:06:04;32.88;;;18.45;;
16460;SDS011;8341;42.048;24.650;2022-12-07T18:08:33;36.55;;;17.65;;
16460;SDS011;8341;42.048;24.650;2022-12-07T18:11:04;34.30;;;17.17;;
16460;SDS011;8341;42.048;24.650;2022-12-07T18:13:32;28.27;;;14.40;;
16460;SDS011;8341;42.048;24.650;2022-12-07T18:16:03;25.27;;;12.38;;
16460;SDS011;8341;42.048;24.650;2022-12-07T18:18:31;27.85;;;13.32;;
16460;SDS011;8341;42.048;24.650;2022-12-07T18:20:59;47.73;;;25.40;;
16460;SDS011;8341;42.048;24.650;2022-12-07T18:23:28;89.68;;;53.08;;
16460;SDS011;8341;42.048;24.650;2022-12-07T18:25:55;40.30;;;23.60;;
16460;SDS011;8341;42.048;24.650;2022-12-07T18:28:24;28.52;;;12.35;;
16460;SDS011;8341;42.048;24.650;2022-12-07T18:30:51;28.00;;;13.85;;
16460;SDS011;8341;42.048;24.650;2022-12-07T18:33:19;29.98;;;15.07;;
16460;SDS011;8341;42.048;24.650;2022-12-07T18:35:46;26.75;;;13.20;;
16460;SDS011;8341;42.048;24.650;2022-12-07T18:38:14;27.08;;;13.00;;
16460;SDS011;8341;42.048;24.650;2022-12-07T18:40:41;24.35;;;11.27;;
16460;SDS011;8341;42.048;24.650;2022-12-07T18:43:10;26.40;;;14.50;;
16460;SDS011;8341;42.048;24.650;2022-12-07T18:45:39;29.92;;;15.45;;
16460;SDS011;8341;42.048;24.650;2022-12-07T18:48:08;51.25;;;29.33;;
16460;SDS011;8341;42.048;24.650;2022-12-07T18:50:35;60.97;;;29.30;;
16460;SDS011;8341;42.048;24.650;2022-12-07T18:53:03;30.60;;;15.63;;
16460;SDS011;8341;42.048;24.650;2022-12-07T18:55:30;25.50;;;13.13;;
16460;SDS011;8341;42.048;24.650;2022-12-07T18:57:58;25.45;;;13.55;;
16460;SDS011;8341;42.048;24.650;2022-12-07T19:00:26;104.87;;;57.63;;
16460;SDS011;8341;42.048;24.650;2022-12-07T19:02:55;53.10;;;27.75;;
16460;SDS011;8341;42.048;24.650;2022-12-07T19:05:23;28.70;;;14.55;;
16460;SDS011;8341;42.048;24.650;2022-12-07T19:07:50;24.85;;;12.90;;
16460;SDS011;8341;42.048;24.650;2022-12-07T19:10:17;42.80;;;23.67;;
16460;SDS011;8341;42.048;24.650;2022-12-07T19:12:45;42.92;;;24.67;;
16460;SDS011;8341;42.048;24.650;2022-12-07T19:15:13;49.75;;;27.17;;
16460;SDS011;8341;42.048;24.650;2022-12-07T19:17:41;36.78;;;20.13;;
16460;SDS011;8341;42.048;24.650;2022-12-07T19:20:11;44.00;;;24.38;;
16460;SDS011;8341;42.048;24.650;2022-12-07T19:22:40;35.47;;;19.60;;
16460;SDS011;8341;42.048;24.650;2022-12-07T19:25:07;37.22;;;19.30;;
16460;SDS011;8341;42.048;24.650;2022-12-07T19:27:34;35.15;;;17.35;;
16460;SDS011;8341;42.048;24.650;2022-12-07T19:30:01;31.48;;;16.15;;
16460;SDS011;8341;42.048;24.650;2022-12-07T19:32:28;26.77;;;15.30;;
16460;SDS011;8341;42.048;24.650;2022-12-07T19:34:55;29.30;;;15.40;;
16460;SDS011;8341;42.048;24.650;2022-12-07T19:37:24;33.70;;;15.65;;
16460;SDS011;8341;42.048;24.650;2022-12-07T19:39:51;39.40;;;22.90;;
16460;SDS011;8341;42.048;24.650;2022-12-07T19:42:18;69.80;;;40.35;;
16460;SDS011;8341;42.048;24.650;2022-12-07T19:44:45;60.00;;;34.65;;
16460;SDS011;8341;42.048;24.650;2022-12-07T19:47:12;60.05;;;33.90;;
16460;SDS011;8341;42.048;24.650;2022-12-07T19:49:41;54.55;;;29.17;;
16460;SDS011;8341;42.048;24.650;2022-12-07T19:52:10;41.10;;;23.60;;
16460;SDS011;8341;42.048;24.650;2022-12-07T19:54:39;35.33;;;20.48;;
16460;SDS011;8341;42.048;24.650;2022-12-07T19:57:06;38.28;;;20.88;;
16460;SDS011;8341;42.048;24.650;2022-12-07T19:59:39;52.15;;;28.38;;
16460;SDS011;8341;42.048;24.650;2022-12-07T20:02:08;51.72;;;26.33;;
16460;SDS011;8341;42.048;24.650;2022-12-07T20:04:37;35.63;;;16.85;;
16460;SDS011;8341;42.048;24.650;2022-12-07T20:07:04;42.10;;;19.92;;
16460;SDS011;8341;42.048;24.650;2022-12-07T20:09:31;35.90;;;17.17;;
16460;SDS011;8341;42.048;24.650;2022-12-07T20:11:59;30.17;;;15.15;;
16460;SDS011;8341;42.048;24.650;2022-12-07T20:14:43;30.92;;;14.02;;
16460;SDS011;8341;42.048;24.650;2022-12-07T20:17:10;28.65;;;13.77;;
16460;SDS011;8341;42.048;24.650;2022-12-07T20:19:38;27.25;;;14.93;;
16460;SDS011;8341;42.048;24.650;2022-12-07T20:22:05;27.65;;;13.95;;